sensor_id;sensor_type;location;lat;lon;timestamp;P1;durP1;ratioP1;P2;durP2;ratioP2
73980;SDS011;62348;51.412;5.436;2022-07-22T00:01:02;11.43;;;4.78;;
73980;SDS011;62348;51.412;5.436;2022-07-22T00:03:28;9.38;;;5.13;;
73980;SDS011;62348;51.412;5.436;2022-07-22T00:05:53;8.45;;;5.03;;
73980;SDS011;62348;51.412;5.436;2022-07-22T00:08:19;11.70;;;4.93;;
73980;SDS011;62348;51.412;5.436;2022-07-22T00:10:44;10.35;;;5.88;;
73980;SDS011;62348;51.412;5.436;2022-07-22T00:13:10;14.32;;;5.32;;
73980;SDS011;62348;51.412;5.436;2022-07-22T00:15:35;12.65;;;5.00;;
73980;SDS011;62348;51.412;5.436;2022-07-22T00:18:01;13.63;;;5.40;;
73980;SDS011;62348;51.412;5.436;2022-07-22T00:20:26;9.77;;;5.20;;
73980;SDS011;62348;51.412;5.436;2022-07-22T00:22:52;13.82;;;5.70;;
73980;SDS011;62348;51.412;5.436;2022-07-22T00:25:17;8.38;;;5.07;;
73980;SDS011;62348;51.412;5.436;2022-07-22T00:27:43;10.43;;;5.00;;
73980;SDS011;62348;51.412;5.436;2022-07-22T00:30:08;10.10;;;4.72;;
73980;SDS011;62348;51.412;5.436;2022-07-22T00:32:34;8.35;;;5.45;;
73980;SDS011;62348;51.412;5.436;2022-07-22T00:35:00;14.10;;;6.38;;
73980;SDS011;62348;51.412;5.436;2022-07-22T00:37:25;12.15;;;5.03;;
73980;SDS011;62348;51.412;5.436;2022-07-22T00:39:50;12.40;;;5.72;;
73980;SDS011;62348;51.412;5.436;2022-07-22T00:42:17;11.88;;;6.00;;
73980;SDS011;62348;51.412;5.436;2022-07-22T00:44:42;9.68;;;5.57;;
73980;SDS011;62348;51.412;5.436;2022-07-22T00:47:08;8.88;;;5.07;;
73980;SDS011;62348;51.412;5.436;2022-07-22T00:49:33;9.60;;;5.30;;
73980;SDS011;62348;51.412;5.436;2022-07-22T00:51:59;15.55;;;5.65;;
73980;SDS011;62348;51.412;5.436;2022-07-22T00:54:25;14.02;;;6.18;;
73980;SDS011;62348;51.412;5.436;2022-07-22T00:56:50;11.90;;;5.55;;
73980;SDS011;62348;51.412;5.436;2022-07-22T00:59:16;7.95;;;5.03;;
73980;SDS011;62348;51.412;5.436;2022-07-22T01:01:41;12.68;;;5.63;;
73980;SDS011;62348;51.412;5.436;2022-07-22T01:04:07;13.23;;;5.10;;
73980;SDS011;62348;51.412;5.436;2022-07-22T01:06:32;16.55;;;5.45;;
73980;SDS011;62348;51.412;5.436;2022-07-22T01:08:58;10.82;;;5.45;;
73980;SDS011;62348;51.412;5.436;2022-07-22T01:11:24;13.50;;;5.18;;
73980;SDS011;62348;51.412;5.436;2022-07-22T01:13:50;14.32;;;4.90;;
73980;SDS011;62348;51.412;5.436;2022-07-22T01:16:18;10.15;;;4.88;;
73980;SDS011;62348;51.412;5.436;2022-07-22T01:18:44;13.18;;;5.85;;
73980;SDS011;62348;51.412;5.436;2022-07-22T01:21:10;9.50;;;4.88;;
73980;SDS011;62348;51.412;5.436;2022-07-22T01:23:37;8.80;;;4.88;;
73980;SDS011;62348;51.412;5.436;2022-07-22T01:26:03;10.40;;;4.95;;
73980;SDS011;62348;51.412;5.436;2022-07-22T01:28:29;10.82;;;6.28;;
73980;SDS011;62348;51.412;5.436;2022-07-22T01:30:55;14.60;;;5.00;;
73980;SDS011;62348;51.412;5.436;2022-07-22T01:33:21;11.32;;;4.82;;
73980;SDS011;62348;51.412;5.436;2022-07-22T01:35:47;10.80;;;4.70;;
73980;SDS011;62348;51.412;5.436;2022-07-22T01:38:13;12.95;;;5.20;;
73980;SDS011;62348;51.412;5.436;2022-07-22T01:40:39;9.38;;;5.05;;
73980;SDS011;62348;51.412;5.436;2022-07-22T01:43:05;10.13;;;4.60;;
73980;SDS011;62348;51.412;5.436;2022-07-22T01:45:31;11.90;;;5.25;;
73980;SDS011;62348;51.412;5.436;2022-07-22T01:47:57;9.23;;;4.38;;
73980;SDS011;62348;51.412;5.436;2022-07-22T01:50:23;14.07;;;4.40;;
73980;SDS011;62348;51.412;5.436;2022-07-22T01:52:49;13.73;;;4.88;;
73980;SDS011;62348;51.412;5.436;2022-07-22T01:55:17;7.97;;;4.85;;
73980;SDS011;62348;51.412;5.436;2022-07-22T01:57:42;8.27;;;4.90;;
73980;SDS011;62348;51.412;5.436;2022-07-22T02:00:08;9.32;;;5.07;;
73980;SDS011;62348;51.412;5.436;2022-07-22T02:02:35;11.27;;;4.53;;
73980;SDS011;62348;51.412;5.436;2022-07-22T02:05:01;9.25;;;5.10;;
73980;SDS011;62348;51.412;5.436;2022-07-22T02:07:27;8.50;;;5.10;;
73980;SDS011;62348;51.412;5.436;2022-07-22T02:09:53;10.88;;;5.30;;
73980;SDS011;62348;51.412;5.436;2022-07-22T02:12:18;8.15;;;4.90;;
73980;SDS011;62348;51.412;5.436;2022-07-22T02:14:44;9.55;;;4.78;;
73980;SDS011;62348;51.412;5.436;2022-07-22T02:17:09;11.00;;;5.35;;
73980;SDS011;62348;51.412;5.436;2022-07-22T02:19:35;9.02;;;5.05;;
73980;SDS011;62348;51.412;5.436;2022-07-22T02:22:01;12.30;;;5.30;;
73980;SDS011;62348;51.412;5.436;2022-07-22T02:24:26;11.75;;;4.78;;
73980;SDS011;62348;51.412;5.436;2022-07-22T02:26:52;7.85;;;5.15;;
73980;SDS011;62348;51.412;5.436;2022-07-22T02:29:17;14.38;;;5.35;;
73980;SDS011;62348;51.412;5.436;2022-07-22T02:31:43;11.77;;;5.80;;
73980;SDS011;62348;51.412;5.436;2022-07-22T02:34:08;7.68;;;4.70;;
73980;SDS011;62348;51.412;5.436;2022-07-22T02:36:33;8.05;;;5.03;;
73980;SDS011;62348;51.412;5.436;2022-07-22T02:38:59;15.10;;;5.28;;
73980;SDS011;62348;51.412;5.436;2022-07-22T02:41:24;11.90;;;6.05;;
73980;SDS011;62348;51.412;5.436;2022-07-22T02:43:50;11.93;;;6.55;;
73980;SDS011;62348;51.412;5.436;2022-07-22T02:46:18;12.13;;;6.63;;
73980;SDS011;62348;51.412;5.436;2022-07-22T02:48:45;17.73;;;6.78;;
73980;SDS011;62348;51.412;5.436;2022-07-22T02:51:11;11.70;;;6.57;;
73980;SDS011;62348;51.412;5.436;2022-07-22T02:53:36;11.85;;;6.75;;
73980;SDS011;62348;51.412;5.436;2022-07-22T02:56:02;14.70;;;6.65;;
73980;SDS011;62348;51.412;5.436;2022-07-22T02:58:27;12.60;;;7.80;;
73980;SDS011;62348;51.412;5.436;2022-07-22T03:00:53;13.48;;;6.90;;
73980;SDS011;62348;51.412;5.436;2022-07-22T03:03:18;13.18;;;7.25;;
73980;SDS011;62348;51.412;5.436;2022-07-22T03:05:43;12.70;;;7.07;;
73980;SDS011;62348;51.412;5.436;2022-07-22T03:08:09;11.95;;;6.40;;
73980;SDS011;62348;51.412;5.436;2022-07-22T03:10:36;14.15;;;7.45;;
73980;SDS011;62348;51.412;5.436;2022-07-22T03:13:01;11.52;;;7.88;;
73980;SDS011;62348;51.412;5.436;2022-07-22T03:15:27;13.38;;;7.75;;
73980;SDS011;62348;51.412;5.436;2022-07-22T03:17:52;15.07;;;8.45;;
73980;SDS011;62348;51.412;5.436;2022-07-22T03:20:18;12.63;;;7.13;;
73980;SDS011;62348;51.412;5.436;2022-07-22T03:22:43;10.15;;;7.18;;
73980;SDS011;62348;51.412;5.436;2022-07-22T03:25:08;11.30;;;7.35;;
73980;SDS011;62348;51.412;5.436;2022-07-22T03:27:34;13.25;;;7.35;;
73980;SDS011;62348;51.412;5.436;2022-07-22T03:29:59;12.90;;;7.30;;
73980;SDS011;62348;51.412;5.436;2022-07-22T03:32:25;15.23;;;6.95;;
73980;SDS011;62348;51.412;5.436;2022-07-22T03:34:50;10.70;;;6.80;;
73980;SDS011;62348;51.412;5.436;2022-07-22T03:37:17;12.10;;;7.80;;
73980;SDS011;62348;51.412;5.436;2022-07-22T03:39:42;11.88;;;7.55;;
73980;SDS011;62348;51.412;5.436;2022-07-22T03:42:08;12.25;;;6.97;;
73980;SDS011;62348;51.412;5.436;2022-07-22T03:44:33;12.27;;;7.88;;
73980;SDS011;62348;51.412;5.436;2022-07-22T03:46:59;12.85;;;7.05;;
73980;SDS011;62348;51.412;5.436;2022-07-22T03:49:24;18.00;;;7.75;;
73980;SDS011;62348;51.412;5.436;2022-07-22T03:51:50;13.70;;;7.53;;
73980;SDS011;62348;51.412;5.436;2022-07-22T03:54:15;15.60;;;8.38;;
73980;SDS011;62348;51.412;5.436;2022-07-22T03:56:41;14.00;;;7.93;;
73980;SDS011;62348;51.412;5.436;2022-07-22T03:59:06;17.80;;;9.10;;
73980;SDS011;62348;51.412;5.436;2022-07-22T04:01:31;14.45;;;9.35;;
73980;SDS011;62348;51.412;5.436;2022-07-22T04:03:57;16.13;;;10.75;;
73980;SDS011;62348;51.412;5.436;2022-07-22T04:06:22;19.08;;;10.20;;
73980;SDS011;62348;51.412;5.436;2022-07-22T04:08:47;19.45;;;10.70;;
73980;SDS011;62348;51.412;5.436;2022-07-22T04:11:13;17.02;;;9.75;;
73980;SDS011;62348;51.412;5.436;2022-07-22T04:13:38;20.27;;;9.77;;
73980;SDS011;62348;51.412;5.436;2022-07-22T04:16:04;16.45;;;10.20;;
73980;SDS011;62348;51.412;5.436;2022-07-22T04:18:30;17.95;;;10.32;;
73980;SDS011;62348;51.412;5.436;2022-07-22T04:20:56;15.13;;;10.02;;
73980;SDS011;62348;51.412;5.436;2022-07-22T04:23:21;20.20;;;10.32;;
73980;SDS011;62348;51.412;5.436;2022-07-22T04:25:47;20.40;;;10.70;;
73980;SDS011;62348;51.412;5.436;2022-07-22T04:28:12;20.45;;;11.13;;
73980;SDS011;62348;51.412;5.436;2022-07-22T04:30:37;14.40;;;10.45;;
73980;SDS011;62348;51.412;5.436;2022-07-22T04:33:03;14.55;;;11.10;;
73980;SDS011;62348;51.412;5.436;2022-07-22T04:35:28;22.17;;;10.32;;
73980;SDS011;62348;51.412;5.436;2022-07-22T04:37:53;19.00;;;10.07;;
73980;SDS011;62348;51.412;5.436;2022-07-22T04:40:19;16.15;;;9.95;;
73980;SDS011;62348;51.412;5.436;2022-07-22T04:42:44;17.98;;;10.93;;
73980;SDS011;62348;51.412;5.436;2022-07-22T04:45:10;21.35;;;11.07;;
73980;SDS011;62348;51.412;5.436;2022-07-22T04:47:36;17.77;;;10.15;;
73980;SDS011;62348;51.412;5.436;2022-07-22T04:50:02;19.05;;;11.05;;
73980;SDS011;62348;51.412;5.436;2022-07-22T04:52:28;18.63;;;11.40;;
73980;SDS011;62348;51.412;5.436;2022-07-22T04:54:53;17.02;;;11.23;;
73980;SDS011;62348;51.412;5.436;2022-07-22T04:57:19;19.90;;;12.75;;
73980;SDS011;62348;51.412;5.436;2022-07-22T04:59:47;20.00;;;11.63;;
73980;SDS011;62348;51.412;5.436;2022-07-22T05:02:12;22.63;;;12.02;;
73980;SDS011;62348;51.412;5.436;2022-07-22T05:04:38;21.40;;;10.73;;
73980;SDS011;62348;51.412;5.436;2022-07-22T05:07:03;15.75;;;10.23;;
73980;SDS011;62348;51.412;5.436;2022-07-22T05:09:28;19.73;;;11.35;;
73980;SDS011;62348;51.412;5.436;2022-07-22T05:11:54;17.15;;;10.27;;
73980;SDS011;62348;51.412;5.436;2022-07-22T05:14:19;20.83;;;11.27;;
73980;SDS011;62348;51.412;5.436;2022-07-22T05:16:45;16.38;;;10.85;;
73980;SDS011;62348;51.412;5.436;2022-07-22T05:19:10;19.92;;;10.00;;
73980;SDS011;62348;51.412;5.436;2022-07-22T05:21:36;18.90;;;10.23;;
73980;SDS011;62348;51.412;5.436;2022-07-22T05:24:01;16.70;;;10.30;;
73980;SDS011;62348;51.412;5.436;2022-07-22T05:26:27;17.83;;;8.85;;
73980;SDS011;62348;51.412;5.436;2022-07-22T05:28:57;18.77;;;9.65;;
73980;SDS011;62348;51.412;5.436;2022-07-22T05:31:22;16.42;;;9.55;;
73980;SDS011;62348;51.412;5.436;2022-07-22T05:33:48;17.05;;;9.95;;
73980;SDS011;62348;51.412;5.436;2022-07-22T05:36:13;14.43;;;9.45;;
73980;SDS011;62348;51.412;5.436;2022-07-22T05:38:39;14.60;;;9.25;;
73980;SDS011;62348;51.412;5.436;2022-07-22T05:41:04;15.40;;;9.60;;
73980;SDS011;62348;51.412;5.436;2022-07-22T05:43:30;15.48;;;9.95;;
73980;SDS011;62348;51.412;5.436;2022-07-22T05:45:55;17.35;;;10.50;;
73980;SDS011;62348;51.412;5.436;2022-07-22T05:48:21;17.17;;;9.15;;
73980;SDS011;62348;51.412;5.436;2022-07-22T05:50:46;18.05;;;8.77;;
73980;SDS011;62348;51.412;5.436;2022-07-22T05:53:12;22.60;;;9.27;;
73980;SDS011;62348;51.412;5.436;2022-07-22T05:55:37;17.45;;;9.18;;
73980;SDS011;62348;51.412;5.436;2022-07-22T05:58:03;17.10;;;8.82;;
73980;SDS011;62348;51.412;5.436;2022-07-22T06:00:28;14.93;;;8.65;;
73980;SDS011;62348;51.412;5.436;2022-07-22T06:02:53;16.17;;;8.65;;
73980;SDS011;62348;51.412;5.436;2022-07-22T06:05:19;16.50;;;9.07;;
73980;SDS011;62348;51.412;5.436;2022-07-22T06:07:45;12.82;;;7.97;;
73980;SDS011;62348;51.412;5.436;2022-07-22T06:10:10;12.73;;;8.02;;
73980;SDS011;62348;51.412;5.436;2022-07-22T06:12:36;16.63;;;7.38;;
73980;SDS011;62348;51.412;5.436;2022-07-22T06:15:01;17.58;;;7.88;;
73980;SDS011;62348;51.412;5.436;2022-07-22T06:17:27;11.40;;;7.78;;
73980;SDS011;62348;51.412;5.436;2022-07-22T06:19:52;17.60;;;8.70;;
73980;SDS011;62348;51.412;5.436;2022-07-22T06:22:18;15.18;;;7.97;;
73980;SDS011;62348;51.412;5.436;2022-07-22T06:24:43;11.05;;;7.85;;
73980;SDS011;62348;51.412;5.436;2022-07-22T06:27:09;17.13;;;7.45;;
73980;SDS011;62348;51.412;5.436;2022-07-22T06:29:35;18.45;;;7.18;;
73980;SDS011;62348;51.412;5.436;2022-07-22T06:32:00;12.60;;;6.68;;
73980;SDS011;62348;51.412;5.436;2022-07-22T06:34:26;11.98;;;6.78;;
73980;SDS011;62348;51.412;5.436;2022-07-22T06:36:51;9.57;;;5.78;;
73980;SDS011;62348;51.412;5.436;2022-07-22T06:39:17;8.88;;;5.35;;
73980;SDS011;62348;51.412;5.436;2022-07-22T06:41:42;9.80;;;5.18;;
73980;SDS011;62348;51.412;5.436;2022-07-22T06:44:07;11.75;;;6.05;;
73980;SDS011;62348;51.412;5.436;2022-07-22T06:46:33;7.70;;;4.38;;
73980;SDS011;62348;51.412;5.436;2022-07-22T06:48:58;5.38;;;4.00;;
73980;SDS011;62348;51.412;5.436;2022-07-22T06:51:24;9.77;;;3.80;;
73980;SDS011;62348;51.412;5.436;2022-07-22T06:53:49;7.57;;;3.10;;
73980;SDS011;62348;51.412;5.436;2022-07-22T06:56:15;5.00;;;3.17;;
73980;SDS011;62348;51.412;5.436;2022-07-22T06:58:40;6.47;;;3.03;;
73980;SDS011;62348;51.412;5.436;2022-07-22T07:01:05;8.48;;;4.35;;
73980;SDS011;62348;51.412;5.436;2022-07-22T07:03:31;9.50;;;5.47;;
73980;SDS011;62348;51.412;5.436;2022-07-22T07:05:56;11.82;;;6.50;;
73980;SDS011;62348;51.412;5.436;2022-07-22T07:08:22;8.90;;;5.20;;
73980;SDS011;62348;51.412;5.436;2022-07-22T07:10:47;10.52;;;5.70;;
73980;SDS011;62348;51.412;5.436;2022-07-22T07:13:13;10.82;;;4.30;;
73980;SDS011;62348;51.412;5.436;2022-07-22T07:15:38;7.60;;;2.75;;
73980;SDS011;62348;51.412;5.436;2022-07-22T07:18:04;5.50;;;2.38;;
73980;SDS011;62348;51.412;5.436;2022-07-22T07:20:29;2.80;;;1.58;;
73980;SDS011;62348;51.412;5.436;2022-07-22T07:22:55;3.65;;;1.70;;
73980;SDS011;62348;51.412;5.436;2022-07-22T07:25:24;3.60;;;1.80;;
73980;SDS011;62348;51.412;5.436;2022-07-22T07:27:50;5.28;;;1.70;;
73980;SDS011;62348;51.412;5.436;2022-07-22T07:30:16;5.43;;;2.20;;
73980;SDS011;62348;51.412;5.436;2022-07-22T07:32:42;4.22;;;2.00;;
73980;SDS011;62348;51.412;5.436;2022-07-22T07:35:07;3.45;;;2.00;;
73980;SDS011;62348;51.412;5.436;2022-07-22T07:37:33;4.63;;;2.55;;
73980;SDS011;62348;51.412;5.436;2022-07-22T07:39:58;5.78;;;2.30;;
73980;SDS011;62348;51.412;5.436;2022-07-22T07:42:24;5.05;;;2.63;;
73980;SDS011;62348;51.412;5.436;2022-07-22T07:44:50;7.95;;;2.70;;
73980;SDS011;62348;51.412;5.436;2022-07-22T07:47:15;5.63;;;2.50;;
73980;SDS011;62348;51.412;5.436;2022-07-22T07:49:44;5.22;;;2.28;;
73980;SDS011;62348;51.412;5.436;2022-07-22T07:52:10;4.75;;;2.63;;
73980;SDS011;62348;51.412;5.436;2022-07-22T07:54:37;9.70;;;2.83;;
73980;SDS011;62348;51.412;5.436;2022-07-22T07:57:03;6.53;;;2.63;;
73980;SDS011;62348;51.412;5.436;2022-07-22T07:59:30;5.70;;;2.78;;
73980;SDS011;62348;51.412;5.436;2022-07-22T08:01:56;6.65;;;2.30;;
73980;SDS011;62348;51.412;5.436;2022-07-22T08:04:21;5.20;;;2.20;;
73980;SDS011;62348;51.412;5.436;2022-07-22T08:06:47;3.55;;;2.50;;
73980;SDS011;62348;51.412;5.436;2022-07-22T08:09:12;4.40;;;2.40;;
73980;SDS011;62348;51.412;5.436;2022-07-22T08:11:37;3.47;;;2.38;;
73980;SDS011;62348;51.412;5.436;2022-07-22T08:14:03;3.15;;;2.13;;
73980;SDS011;62348;51.412;5.436;2022-07-22T08:16:28;7.70;;;2.50;;
73980;SDS011;62348;51.412;5.436;2022-07-22T08:18:54;4.53;;;2.05;;
73980;SDS011;62348;51.412;5.436;2022-07-22T08:21:19;3.28;;;2.05;;
73980;SDS011;62348;51.412;5.436;2022-07-22T08:23:44;4.72;;;2.30;;
73980;SDS011;62348;51.412;5.436;2022-07-22T08:26:10;3.22;;;2.15;;
73980;SDS011;62348;51.412;5.436;2022-07-22T08:28:35;3.50;;;1.80;;
73980;SDS011;62348;51.412;5.436;2022-07-22T08:31:01;5.85;;;1.98;;
73980;SDS011;62348;51.412;5.436;2022-07-22T08:33:26;2.58;;;1.38;;
73980;SDS011;62348;51.412;5.436;2022-07-22T08:35:51;2.10;;;1.50;;
73980;SDS011;62348;51.412;5.436;2022-07-22T08:38:17;3.17;;;1.67;;
73980;SDS011;62348;51.412;5.436;2022-07-22T08:40:42;3.90;;;1.80;;
73980;SDS011;62348;51.412;5.436;2022-07-22T08:43:08;8.70;;;2.13;;
73980;SDS011;62348;51.412;5.436;2022-07-22T08:45:33;2.90;;;1.85;;
73980;SDS011;62348;51.412;5.436;2022-07-22T08:47:59;3.22;;;1.52;;
73980;SDS011;62348;51.412;5.436;2022-07-22T08:50:28;4.07;;;2.35;;
73980;SDS011;62348;51.412;5.436;2022-07-22T08:52:54;3.28;;;1.38;;
73980;SDS011;62348;51.412;5.436;2022-07-22T08:55:19;5.57;;;2.55;;
73980;SDS011;62348;51.412;5.436;2022-07-22T08:57:46;8.38;;;2.10;;
73980;SDS011;62348;51.412;5.436;2022-07-22T09:00:14;4.57;;;2.08;;
73980;SDS011;62348;51.412;5.436;2022-07-22T09:02:41;4.88;;;1.95;;
73980;SDS011;62348;51.412;5.436;2022-07-22T09:05:09;5.78;;;2.08;;
73980;SDS011;62348;51.412;5.436;2022-07-22T09:07:37;4.45;;;2.00;;
73980;SDS011;62348;51.412;5.436;2022-07-22T09:10:12;4.70;;;1.83;;
73980;SDS011;62348;51.412;5.436;2022-07-22T09:12:55;3.58;;;1.90;;
73980;SDS011;62348;51.412;5.436;2022-07-22T09:15:27;5.47;;;1.80;;
73980;SDS011;62348;51.412;5.436;2022-07-22T09:17:58;6.40;;;2.03;;
73980;SDS011;62348;51.412;5.436;2022-07-22T09:20:25;5.20;;;1.55;;
73980;SDS011;62348;51.412;5.436;2022-07-22T09:22:51;6.82;;;2.15;;
73980;SDS011;62348;51.412;5.436;2022-07-22T09:27:53;7.32;;;1.80;;
73980;SDS011;62348;51.412;5.436;2022-07-22T09:30:41;6.80;;;2.17;;
73980;SDS011;62348;51.412;5.436;2022-07-22T09:33:18;2.95;;;2.17;;
73980;SDS011;62348;51.412;5.436;2022-07-22T09:35:45;3.75;;;2.30;;
73980;SDS011;62348;51.412;5.436;2022-07-22T09:38:11;4.35;;;2.10;;
73980;SDS011;62348;51.412;5.436;2022-07-22T09:40:48;3.97;;;2.40;;
73980;SDS011;62348;51.412;5.436;2022-07-22T09:43:14;3.42;;;1.75;;
73980;SDS011;62348;51.412;5.436;2022-07-22T09:48:24;5.38;;;2.45;;
73980;SDS011;62348;51.412;5.436;2022-07-22T09:50:50;4.38;;;2.42;;
73980;SDS011;62348;51.412;5.436;2022-07-22T09:53:18;4.43;;;1.83;;
73980;SDS011;62348;51.412;5.436;2022-07-22T09:55:45;7.18;;;2.05;;
73980;SDS011;62348;51.412;5.436;2022-07-22T09:58:10;3.58;;;1.80;;
73980;SDS011;62348;51.412;5.436;2022-07-22T10:00:37;3.75;;;1.77;;
73980;SDS011;62348;51.412;5.436;2022-07-22T10:03:05;3.50;;;2.10;;
73980;SDS011;62348;51.412;5.436;2022-07-22T10:05:33;6.47;;;2.75;;
73980;SDS011;62348;51.412;5.436;2022-07-22T10:08:01;3.15;;;2.80;;
73980;SDS011;62348;51.412;5.436;2022-07-22T10:10:29;4.15;;;2.13;;
73980;SDS011;62348;51.412;5.436;2022-07-22T10:12:56;5.47;;;2.13;;
73980;SDS011;62348;51.412;5.436;2022-07-22T10:15:24;3.63;;;2.00;;
73980;SDS011;62348;51.412;5.436;2022-07-22T10:17:52;4.20;;;2.40;;
73980;SDS011;62348;51.412;5.436;2022-07-22T10:20:20;2.72;;;2.00;;
73980;SDS011;62348;51.412;5.436;2022-07-22T10:22:53;3.80;;;2.40;;
73980;SDS011;62348;51.412;5.436;2022-07-22T10:25:24;3.92;;;2.10;;
73980;SDS011;62348;51.412;5.436;2022-07-22T10:30:42;4.82;;;2.30;;
73980;SDS011;62348;51.412;5.436;2022-07-22T10:33:15;7.20;;;2.60;;
73980;SDS011;62348;51.412;5.436;2022-07-22T10:36:00;3.35;;;1.70;;
73980;SDS011;62348;51.412;5.436;2022-07-22T10:38:27;4.28;;;2.30;;
73980;SDS011;62348;51.412;5.436;2022-07-22T10:41:01;6.80;;;2.53;;
73980;SDS011;62348;51.412;5.436;2022-07-22T10:43:32;6.95;;;2.58;;
73980;SDS011;62348;51.412;5.436;2022-07-22T10:46:13;5.33;;;2.70;;
73980;SDS011;62348;51.412;5.436;2022-07-22T10:51:19;5.50;;;2.47;;
73980;SDS011;62348;51.412;5.436;2022-07-22T11:01:26;6.32;;;2.42;;
73980;SDS011;62348;51.412;5.436;2022-07-22T11:04:06;3.95;;;2.65;;
73980;SDS011;62348;51.412;5.436;2022-07-22T11:06:33;3.85;;;2.55;;
73980;SDS011;62348;51.412;5.436;2022-07-22T11:09:09;4.82;;;2.00;;
73980;SDS011;62348;51.412;5.436;2022-07-22T11:11:37;6.63;;;3.05;;
73980;SDS011;62348;51.412;5.436;2022-07-22T11:14:14;4.03;;;2.38;;
73980;SDS011;62348;51.412;5.436;2022-07-22T11:16:52;6.78;;;2.50;;
73980;SDS011;62348;51.412;5.436;2022-07-22T11:19:20;9.27;;;2.70;;
73980;SDS011;62348;51.412;5.436;2022-07-22T11:21:54;4.88;;;2.92;;
73980;SDS011;62348;51.412;5.436;2022-07-22T11:24:22;6.95;;;3.35;;
73980;SDS011;62348;51.412;5.436;2022-07-22T11:26:52;6.22;;;2.95;;
73980;SDS011;62348;51.412;5.436;2022-07-22T11:29:26;4.57;;;2.67;;
73980;SDS011;62348;51.412;5.436;2022-07-22T11:31:54;5.25;;;3.15;;
73980;SDS011;62348;51.412;5.436;2022-07-22T11:34:21;6.32;;;2.97;;
73980;SDS011;62348;51.412;5.436;2022-07-22T11:36:48;8.05;;;2.92;;
73980;SDS011;62348;51.412;5.436;2022-07-22T11:39:14;6.40;;;2.42;;
73980;SDS011;62348;51.412;5.436;2022-07-22T11:41:44;5.45;;;2.97;;
73980;SDS011;62348;51.412;5.436;2022-07-22T11:44:09;6.05;;;2.95;;
73980;SDS011;62348;51.412;5.436;2022-07-22T11:46:39;8.32;;;3.47;;
73980;SDS011;62348;51.412;5.436;2022-07-22T11:49:06;8.30;;;3.60;;
73980;SDS011;62348;51.412;5.436;2022-07-22T11:51:33;5.63;;;2.92;;
73980;SDS011;62348;51.412;5.436;2022-07-22T11:54:01;5.63;;;3.10;;
73980;SDS011;62348;51.412;5.436;2022-07-22T11:56:28;6.10;;;3.28;;
73980;SDS011;62348;51.412;5.436;2022-07-22T11:58:54;6.50;;;3.00;;
73980;SDS011;62348;51.412;5.436;2022-07-22T12:01:25;5.80;;;3.17;;
73980;SDS011;62348;51.412;5.436;2022-07-22T12:03:52;5.85;;;3.05;;
73980;SDS011;62348;51.412;5.436;2022-07-22T12:06:20;5.15;;;3.17;;
73980;SDS011;62348;51.412;5.436;2022-07-22T12:08:56;4.82;;;2.92;;
73980;SDS011;62348;51.412;5.436;2022-07-22T12:11:30;6.20;;;3.25;;
73980;SDS011;62348;51.412;5.436;2022-07-22T12:13:56;4.70;;;3.05;;
73980;SDS011;62348;51.412;5.436;2022-07-22T12:16:30;6.97;;;3.67;;
73980;SDS011;62348;51.412;5.436;2022-07-22T12:18:57;5.88;;;3.45;;
73980;SDS011;62348;51.412;5.436;2022-07-22T12:21:23;6.00;;;4.32;;
73980;SDS011;62348;51.412;5.436;2022-07-22T12:23:55;5.60;;;3.55;;
73980;SDS011;62348;51.412;5.436;2022-07-22T12:29:24;6.93;;;4.57;;
73980;SDS011;62348;51.412;5.436;2022-07-22T12:31:53;7.28;;;3.88;;
73980;SDS011;62348;51.412;5.436;2022-07-22T12:37:17;7.32;;;3.75;;
73980;SDS011;62348;51.412;5.436;2022-07-22T12:42:42;5.43;;;2.88;;
73980;SDS011;62348;51.412;5.436;2022-07-22T12:45:09;6.68;;;3.50;;
73980;SDS011;62348;51.412;5.436;2022-07-22T12:55:25;7.05;;;3.90;;
73980;SDS011;62348;51.412;5.436;2022-07-22T12:57:52;7.10;;;3.47;;
73980;SDS011;62348;51.412;5.436;2022-07-22T13:00:19;6.25;;;3.63;;
73980;SDS011;62348;51.412;5.436;2022-07-22T13:02:49;7.35;;;4.03;;
73980;SDS011;62348;51.412;5.436;2022-07-22T13:05:15;6.53;;;3.60;;
73980;SDS011;62348;51.412;5.436;2022-07-22T13:07:41;7.05;;;4.05;;
73980;SDS011;62348;51.412;5.436;2022-07-22T13:10:07;5.60;;;3.78;;
73980;SDS011;62348;51.412;5.436;2022-07-22T13:12:33;7.72;;;4.15;;
73980;SDS011;62348;51.412;5.436;2022-07-22T13:14:58;7.55;;;4.30;;
73980;SDS011;62348;51.412;5.436;2022-07-22T13:17:23;7.05;;;3.45;;
73980;SDS011;62348;51.412;5.436;2022-07-22T13:19:49;4.32;;;3.10;;
73980;SDS011;62348;51.412;5.436;2022-07-22T13:22:14;7.05;;;3.90;;
73980;SDS011;62348;51.412;5.436;2022-07-22T13:24:40;4.88;;;3.20;;
73980;SDS011;62348;51.412;5.436;2022-07-22T13:27:05;6.07;;;4.05;;
73980;SDS011;62348;51.412;5.436;2022-07-22T13:29:30;6.68;;;4.00;;
73980;SDS011;62348;51.412;5.436;2022-07-22T13:31:56;5.65;;;3.80;;
73980;SDS011;62348;51.412;5.436;2022-07-22T13:34:21;6.05;;;3.90;;
73980;SDS011;62348;51.412;5.436;2022-07-22T13:36:46;6.97;;;4.35;;
73980;SDS011;62348;51.412;5.436;2022-07-22T13:39:12;7.50;;;4.32;;
73980;SDS011;62348;51.412;5.436;2022-07-22T13:41:38;8.07;;;4.32;;
73980;SDS011;62348;51.412;5.436;2022-07-22T13:44:03;10.48;;;5.05;;
73980;SDS011;62348;51.412;5.436;2022-07-22T13:46:33;8.20;;;5.00;;
73980;SDS011;62348;51.412;5.436;2022-07-22T13:48:59;5.78;;;3.88;;
73980;SDS011;62348;51.412;5.436;2022-07-22T13:51:25;6.25;;;4.35;;
73980;SDS011;62348;51.412;5.436;2022-07-22T13:53:50;7.30;;;4.55;;
73980;SDS011;62348;51.412;5.436;2022-07-22T13:56:15;11.82;;;5.25;;
73980;SDS011;62348;51.412;5.436;2022-07-22T13:58:41;9.77;;;5.00;;
73980;SDS011;62348;51.412;5.436;2022-07-22T14:01:07;6.18;;;4.22;;
73980;SDS011;62348;51.412;5.436;2022-07-22T14:03:34;8.38;;;4.60;;
73980;SDS011;62348;51.412;5.436;2022-07-22T14:06:00;8.48;;;4.97;;
73980;SDS011;62348;51.412;5.436;2022-07-22T14:08:26;6.55;;;5.43;;
73980;SDS011;62348;51.412;5.436;2022-07-22T14:10:51;9.13;;;4.97;;
73980;SDS011;62348;51.412;5.436;2022-07-22T14:13:17;13.82;;;5.05;;
73980;SDS011;62348;51.412;5.436;2022-07-22T14:15:42;6.70;;;4.82;;
73980;SDS011;62348;51.412;5.436;2022-07-22T14:18:08;9.10;;;5.82;;
73980;SDS011;62348;51.412;5.436;2022-07-22T14:20:34;10.82;;;6.38;;
73980;SDS011;62348;51.412;5.436;2022-07-22T14:23:00;9.32;;;6.45;;
73980;SDS011;62348;51.412;5.436;2022-07-22T14:25:26;7.57;;;5.60;;
73980;SDS011;62348;51.412;5.436;2022-07-22T14:27:52;9.80;;;5.60;;
73980;SDS011;62348;51.412;5.436;2022-07-22T14:30:17;8.88;;;5.38;;
73980;SDS011;62348;51.412;5.436;2022-07-22T14:32:43;7.90;;;5.20;;
73980;SDS011;62348;51.412;5.436;2022-07-22T14:35:08;11.38;;;6.65;;
73980;SDS011;62348;51.412;5.436;2022-07-22T14:37:34;7.85;;;5.20;;
73980;SDS011;62348;51.412;5.436;2022-07-22T14:39:59;10.40;;;6.00;;
73980;SDS011;62348;51.412;5.436;2022-07-22T14:42:25;9.00;;;5.85;;
73980;SDS011;62348;51.412;5.436;2022-07-22T14:44:50;8.68;;;6.28;;
73980;SDS011;62348;51.412;5.436;2022-07-22T14:47:16;13.27;;;6.40;;
73980;SDS011;62348;51.412;5.436;2022-07-22T14:49:41;8.48;;;6.00;;
73980;SDS011;62348;51.412;5.436;2022-07-22T14:52:06;10.23;;;6.53;;
73980;SDS011;62348;51.412;5.436;2022-07-22T14:54:32;9.98;;;6.38;;
73980;SDS011;62348;51.412;5.436;2022-07-22T14:56:57;10.25;;;6.50;;
73980;SDS011;62348;51.412;5.436;2022-07-22T14:59:23;8.75;;;6.15;;
73980;SDS011;62348;51.412;5.436;2022-07-22T15:01:51;7.90;;;5.35;;
73980;SDS011;62348;51.412;5.436;2022-07-22T15:04:16;8.60;;;5.72;;
73980;SDS011;62348;51.412;5.436;2022-07-22T15:06:42;9.13;;;6.95;;
73980;SDS011;62348;51.412;5.436;2022-07-22T15:09:07;9.70;;;6.68;;
73980;SDS011;62348;51.412;5.436;2022-07-22T15:11:33;8.23;;;6.60;;